Terminal Aerodrome Forecast
Issued by NWS Lake Charles, LA

Home | Current Version | Previous Version | Text Only | Print | Product List | Glossary On
Versions: 1 2 3 4 5 6 7 8 9 10 11 12 13 14 15 16 17 18 19 20 21 22
072
FTUS44 KLCH 222320
TAFLCH
TAF
KLCH 222320Z 2300/2324 20006KT P6SM FEW050
     FM230600 00000KT 4SM BR SCT013
      TEMPO 2308/2310 1SM BR VV004
     FM231000 VRB05KT 1/2SM FG VV004
      TEMPO 2314/2316 3SM BR FEW004 OVC013
     FM231600 13007KT P6SM FEW017 SCT025=

USA.gov is the U.S. government's official web portal to all federal, state and local government web resources and services.